sensor_id;sensor_type;location;lat;lon;timestamp;temperature;humidity
20670;DHT22;10494;50.868;4.180;2023-05-16T00:01:47;9.20;99.90
20670;DHT22;10494;50.868;4.180;2023-05-16T00:04:13;9.30;99.90
20670;DHT22;10494;50.868;4.180;2023-05-16T00:06:38;9.30;99.90
20670;DHT22;10494;50.868;4.180;2023-05-16T00:09:04;9.30;99.90
20670;DHT22;10494;50.868;4.180;2023-05-16T00:11:30;9.30;99.90
20670;DHT22;10494;50.868;4.180;2023-05-16T00:13:55;9.30;99.90
20670;DHT22;10494;50.868;4.180;2023-05-16T00:16:21;9.30;99.90
20670;DHT22;10494;50.868;4.180;2023-05-16T00:18:50;9.20;99.90
20670;DHT22;10494;50.868;4.180;2023-05-16T00:21:17;9.20;99.90
20670;DHT22;10494;50.868;4.180;2023-05-16T00:23:42;9.20;99.90
20670;DHT22;10494;50.868;4.180;2023-05-16T00:26:08;9.20;99.90
20670;DHT22;10494;50.868;4.180;2023-05-16T00:28:34;9.20;99.90
20670;DHT22;10494;50.868;4.180;2023-05-16T00:31:00;9.10;99.90
20670;DHT22;10494;50.868;4.180;2023-05-16T00:33:26;9.10;99.90
20670;DHT22;10494;50.868;4.180;2023-05-16T00:35:51;9.00;99.90
20670;DHT22;10494;50.868;4.180;2023-05-16T00:38:18;9.00;99.90
20670;DHT22;10494;50.868;4.180;2023-05-16T00:40:44;8.90;99.90
20670;DHT22;10494;50.868;4.180;2023-05-16T00:43:09;8.80;99.90
20670;DHT22;10494;50.868;4.180;2023-05-16T00:45:35;8.90;99.90
20670;DHT22;10494;50.868;4.180;2023-05-16T00:48:01;8.80;99.90
20670;DHT22;10494;50.868;4.180;2023-05-16T00:50:27;8.70;99.90
20670;DHT22;10494;50.868;4.180;2023-05-16T00:52:53;8.80;99.90
20670;DHT22;10494;50.868;4.180;2023-05-16T00:55:19;8.90;99.90
20670;DHT22;10494;50.868;4.180;2023-05-16T00:57:44;8.90;99.90
20670;DHT22;10494;50.868;4.180;2023-05-16T01:00:11;8.90;99.90
20670;DHT22;10494;50.868;4.180;2023-05-16T01:02:39;8.90;99.90
20670;DHT22;10494;50.868;4.180;2023-05-16T01:05:06;8.90;99.90
20670;DHT22;10494;50.868;4.180;2023-05-16T01:07:33;8.80;99.90
20670;DHT22;10494;50.868;4.180;2023-05-16T01:10:00;8.80;99.90
20670;DHT22;10494;50.868;4.180;2023-05-16T01:12:47;8.80;99.90
20670;DHT22;10494;50.868;4.180;2023-05-16T01:15:29;8.70;99.90
20670;DHT22;10494;50.868;4.180;2023-05-16T01:18:09;8.60;99.90
20670;DHT22;10494;50.868;4.180;2023-05-16T01:20:53;8.60;99.90
20670;DHT22;10494;50.868;4.180;2023-05-16T01:23:40;8.60;99.90
20670;DHT22;10494;50.868;4.180;2023-05-16T01:26:23;8.60;99.90
20670;DHT22;10494;50.868;4.180;2023-05-16T01:28:51;8.60;99.90
20670;DHT22;10494;50.868;4.180;2023-05-16T01:31:18;8.50;99.90
20670;DHT22;10494;50.868;4.180;2023-05-16T01:33:44;8.50;99.90
20670;DHT22;10494;50.868;4.180;2023-05-16T01:39:00;8.40;99.90
20670;DHT22;10494;50.868;4.180;2023-05-16T01:41:38;8.40;99.90
20670;DHT22;10494;50.868;4.180;2023-05-16T01:44:14;8.30;99.90
20670;DHT22;10494;50.868;4.180;2023-05-16T01:46:42;8.20;99.90
20670;DHT22;10494;50.868;4.180;2023-05-16T01:49:24;8.20;99.90
20670;DHT22;10494;50.868;4.180;2023-05-16T01:51:54;8.10;99.90
20670;DHT22;10494;50.868;4.180;2023-05-16T01:54:23;8.10;99.90
20670;DHT22;10494;50.868;4.180;2023-05-16T01:56:52;8.20;99.90
20670;DHT22;10494;50.868;4.180;2023-05-16T01:59:23;8.30;99.90
20670;DHT22;10494;50.868;4.180;2023-05-16T02:01:52;8.30;99.90
20670;DHT22;10494;50.868;4.180;2023-05-16T02:04:18;8.20;99.90
20670;DHT22;10494;50.868;4.180;2023-05-16T02:06:43;8.30;99.90
20670;DHT22;10494;50.868;4.180;2023-05-16T02:09:09;8.20;99.90
20670;DHT22;10494;50.868;4.180;2023-05-16T02:11:35;8.30;99.90
20670;DHT22;10494;50.868;4.180;2023-05-16T02:14:00;8.40;99.90
20670;DHT22;10494;50.868;4.180;2023-05-16T02:16:26;8.30;99.90
20670;DHT22;10494;50.868;4.180;2023-05-16T02:18:52;8.30;99.90
20670;DHT22;10494;50.868;4.180;2023-05-16T02:21:17;8.30;99.90
20670;DHT22;10494;50.868;4.180;2023-05-16T02:23:43;8.40;99.90
20670;DHT22;10494;50.868;4.180;2023-05-16T02:26:08;8.40;99.90
20670;DHT22;10494;50.868;4.180;2023-05-16T02:28:34;8.40;99.90
20670;DHT22;10494;50.868;4.180;2023-05-16T02:31:00;8.40;99.90
20670;DHT22;10494;50.868;4.180;2023-05-16T02:33:26;8.50;99.90
20670;DHT22;10494;50.868;4.180;2023-05-16T02:35:53;8.60;99.90
20670;DHT22;10494;50.868;4.180;2023-05-16T02:38:18;8.60;99.90
20670;DHT22;10494;50.868;4.180;2023-05-16T02:40:46;8.40;99.90
20670;DHT22;10494;50.868;4.180;2023-05-16T02:43:12;8.30;99.90
20670;DHT22;10494;50.868;4.180;2023-05-16T02:45:38;8.20;99.90
20670;DHT22;10494;50.868;4.180;2023-05-16T02:48:03;8.10;99.90
20670;DHT22;10494;50.868;4.180;2023-05-16T02:50:29;8.00;99.90
20670;DHT22;10494;50.868;4.180;2023-05-16T02:52:56;8.00;99.90
20670;DHT22;10494;50.868;4.180;2023-05-16T02:55:24;8.10;99.90
20670;DHT22;10494;50.868;4.180;2023-05-16T02:57:50;8.10;99.90
20670;DHT22;10494;50.868;4.180;2023-05-16T03:00:16;8.10;99.90
20670;DHT22;10494;50.868;4.180;2023-05-16T03:02:43;8.10;99.90
20670;DHT22;10494;50.868;4.180;2023-05-16T03:05:09;8.10;99.90
20670;DHT22;10494;50.868;4.180;2023-05-16T03:07:36;8.10;99.90
20670;DHT22;10494;50.868;4.180;2023-05-16T03:10:02;8.00;99.90
20670;DHT22;10494;50.868;4.180;2023-05-16T03:12:27;8.00;99.90
20670;DHT22;10494;50.868;4.180;2023-05-16T03:14:53;8.00;99.90
20670;DHT22;10494;50.868;4.180;2023-05-16T03:17:18;8.00;99.90
20670;DHT22;10494;50.868;4.180;2023-05-16T03:19:45;8.00;99.90
20670;DHT22;10494;50.868;4.180;2023-05-16T03:22:10;8.00;99.90
20670;DHT22;10494;50.868;4.180;2023-05-16T03:24:36;8.00;99.90
20670;DHT22;10494;50.868;4.180;2023-05-16T03:27:02;8.00;99.90
20670;DHT22;10494;50.868;4.180;2023-05-16T03:29:29;7.90;99.90
20670;DHT22;10494;50.868;4.180;2023-05-16T03:31:55;7.90;99.90
20670;DHT22;10494;50.868;4.180;2023-05-16T03:34:21;7.80;99.90
20670;DHT22;10494;50.868;4.180;2023-05-16T03:36:49;7.80;99.90
20670;DHT22;10494;50.868;4.180;2023-05-16T03:39:15;7.90;99.90
20670;DHT22;10494;50.868;4.180;2023-05-16T03:41:41;7.80;99.90
20670;DHT22;10494;50.868;4.180;2023-05-16T03:44:07;7.90;99.90
20670;DHT22;10494;50.868;4.180;2023-05-16T03:46:33;7.90;99.90
20670;DHT22;10494;50.868;4.180;2023-05-16T03:48:59;7.90;99.90
20670;DHT22;10494;50.868;4.180;2023-05-16T03:51:24;7.80;99.90
20670;DHT22;10494;50.868;4.180;2023-05-16T03:53:50;7.80;99.90
20670;DHT22;10494;50.868;4.180;2023-05-16T03:56:16;7.80;99.90
20670;DHT22;10494;50.868;4.180;2023-05-16T03:58:41;7.80;99.90
20670;DHT22;10494;50.868;4.180;2023-05-16T04:01:07;7.70;99.90
20670;DHT22;10494;50.868;4.180;2023-05-16T04:03:34;7.70;99.90
20670;DHT22;10494;50.868;4.180;2023-05-16T04:06:00;7.70;99.90
20670;DHT22;10494;50.868;4.180;2023-05-16T04:08:26;7.70;99.90
20670;DHT22;10494;50.868;4.180;2023-05-16T04:10:52;7.70;99.90
20670;DHT22;10494;50.868;4.180;2023-05-16T04:13:17;7.70;99.90
20670;DHT22;10494;50.868;4.180;2023-05-16T04:15:43;7.60;99.90
20670;DHT22;10494;50.868;4.180;2023-05-16T04:18:09;7.60;99.90
20670;DHT22;10494;50.868;4.180;2023-05-16T04:20:35;7.60;99.90
20670;DHT22;10494;50.868;4.180;2023-05-16T04:23:01;7.60;99.90
20670;DHT22;10494;50.868;4.180;2023-05-16T04:25:27;7.60;99.90
20670;DHT22;10494;50.868;4.180;2023-05-16T04:27:52;7.70;99.90
20670;DHT22;10494;50.868;4.180;2023-05-16T04:30:18;7.70;99.90
20670;DHT22;10494;50.868;4.180;2023-05-16T04:32:44;7.70;99.90
20670;DHT22;10494;50.868;4.180;2023-05-16T04:35:09;7.80;99.90
20670;DHT22;10494;50.868;4.180;2023-05-16T04:37:35;7.90;99.90
20670;DHT22;10494;50.868;4.180;2023-05-16T04:40:02;8.00;99.90
20670;DHT22;10494;50.868;4.180;2023-05-16T04:42:28;8.00;99.90
20670;DHT22;10494;50.868;4.180;2023-05-16T04:44:53;8.20;99.90
20670;DHT22;10494;50.868;4.180;2023-05-16T04:47:20;8.40;99.90
20670;DHT22;10494;50.868;4.180;2023-05-16T04:49:46;8.70;99.90
20670;DHT22;10494;50.868;4.180;2023-05-16T04:52:11;8.60;99.90
20670;DHT22;10494;50.868;4.180;2023-05-16T04:54:37;8.70;99.90
20670;DHT22;10494;50.868;4.180;2023-05-16T04:57:04;8.90;99.90
20670;DHT22;10494;50.868;4.180;2023-05-16T04:59:30;9.10;99.90
20670;DHT22;10494;50.868;4.180;2023-05-16T05:01:55;9.40;99.90
20670;DHT22;10494;50.868;4.180;2023-05-16T05:04:21;9.70;99.90
20670;DHT22;10494;50.868;4.180;2023-05-16T05:06:47;9.90;99.90
20670;DHT22;10494;50.868;4.180;2023-05-16T05:09:13;10.00;99.90
20670;DHT22;10494;50.868;4.180;2023-05-16T05:11:38;10.00;99.90
20670;DHT22;10494;50.868;4.180;2023-05-16T05:14:04;10.00;99.90
20670;DHT22;10494;50.868;4.180;2023-05-16T05:16:30;10.20;99.90
20670;DHT22;10494;50.868;4.180;2023-05-16T05:18:56;9.80;99.90
20670;DHT22;10494;50.868;4.180;2023-05-16T05:21:21;9.60;99.90
20670;DHT22;10494;50.868;4.180;2023-05-16T05:23:49;9.40;99.90
20670;DHT22;10494;50.868;4.180;2023-05-16T05:26:16;9.20;99.90
20670;DHT22;10494;50.868;4.180;2023-05-16T05:28:41;9.20;99.90
20670;DHT22;10494;50.868;4.180;2023-05-16T05:31:07;9.30;99.90
20670;DHT22;10494;50.868;4.180;2023-05-16T05:33:33;9.40;99.90
20670;DHT22;10494;50.868;4.180;2023-05-16T05:35:59;9.30;99.90
20670;DHT22;10494;50.868;4.180;2023-05-16T05:38:24;9.30;99.90
20670;DHT22;10494;50.868;4.180;2023-05-16T05:40:50;9.20;99.90
20670;DHT22;10494;50.868;4.180;2023-05-16T05:43:16;9.50;99.90
20670;DHT22;10494;50.868;4.180;2023-05-16T05:45:42;9.60;99.90
20670;DHT22;10494;50.868;4.180;2023-05-16T05:48:08;9.60;99.90
20670;DHT22;10494;50.868;4.180;2023-05-16T05:50:35;9.50;99.90
20670;DHT22;10494;50.868;4.180;2023-05-16T05:53:01;9.60;99.90
20670;DHT22;10494;50.868;4.180;2023-05-16T05:55:27;9.50;99.90
20670;DHT22;10494;50.868;4.180;2023-05-16T05:57:52;9.50;99.90
20670;DHT22;10494;50.868;4.180;2023-05-16T06:00:18;9.50;99.90
20670;DHT22;10494;50.868;4.180;2023-05-16T06:02:44;9.60;99.90
20670;DHT22;10494;50.868;4.180;2023-05-16T06:05:09;9.50;99.90
20670;DHT22;10494;50.868;4.180;2023-05-16T06:07:35;9.50;99.90
20670;DHT22;10494;50.868;4.180;2023-05-16T06:10:01;9.80;99.90
20670;DHT22;10494;50.868;4.180;2023-05-16T06:12:29;10.00;99.90
20670;DHT22;10494;50.868;4.180;2023-05-16T06:14:54;10.30;99.90
20670;DHT22;10494;50.868;4.180;2023-05-16T06:17:20;10.10;99.90
20670;DHT22;10494;50.868;4.180;2023-05-16T06:19:47;10.00;99.90
20670;DHT22;10494;50.868;4.180;2023-05-16T06:22:13;10.00;99.90
20670;DHT22;10494;50.868;4.180;2023-05-16T06:24:39;10.20;99.90
20670;DHT22;10494;50.868;4.180;2023-05-16T06:27:05;10.30;99.90
20670;DHT22;10494;50.868;4.180;2023-05-16T06:29:31;10.20;99.90
20670;DHT22;10494;50.868;4.180;2023-05-16T06:31:57;10.00;99.90
20670;DHT22;10494;50.868;4.180;2023-05-16T06:34:22;10.10;99.90
20670;DHT22;10494;50.868;4.180;2023-05-16T06:36:53;10.00;99.90
20670;DHT22;10494;50.868;4.180;2023-05-16T06:39:18;10.00;99.90
20670;DHT22;10494;50.868;4.180;2023-05-16T06:41:44;9.90;99.90
20670;DHT22;10494;50.868;4.180;2023-05-16T06:44:10;10.00;99.90
20670;DHT22;10494;50.868;4.180;2023-05-16T06:46:36;10.10;99.90
20670;DHT22;10494;50.868;4.180;2023-05-16T06:49:03;10.10;99.90
20670;DHT22;10494;50.868;4.180;2023-05-16T06:51:29;10.10;99.90
20670;DHT22;10494;50.868;4.180;2023-05-16T06:53:56;10.20;99.90
20670;DHT22;10494;50.868;4.180;2023-05-16T06:56:21;10.40;99.90
20670;DHT22;10494;50.868;4.180;2023-05-16T06:58:48;10.30;99.90
20670;DHT22;10494;50.868;4.180;2023-05-16T07:01:14;10.50;99.90
20670;DHT22;10494;50.868;4.180;2023-05-16T07:03:40;10.50;99.90
20670;DHT22;10494;50.868;4.180;2023-05-16T07:06:05;10.60;99.90
20670;DHT22;10494;50.868;4.180;2023-05-16T07:08:31;10.70;99.90
20670;DHT22;10494;50.868;4.180;2023-05-16T07:10:57;10.80;99.90
20670;DHT22;10494;50.868;4.180;2023-05-16T07:13:23;10.90;99.90
20670;DHT22;10494;50.868;4.180;2023-05-16T07:15:49;11.10;99.90
20670;DHT22;10494;50.868;4.180;2023-05-16T07:18:14;11.30;99.90
20670;DHT22;10494;50.868;4.180;2023-05-16T07:20:40;11.50;99.90
20670;DHT22;10494;50.868;4.180;2023-05-16T07:23:06;11.90;99.90
20670;DHT22;10494;50.868;4.180;2023-05-16T07:25:31;12.00;99.90
20670;DHT22;10494;50.868;4.180;2023-05-16T07:27:57;11.50;99.90
20670;DHT22;10494;50.868;4.180;2023-05-16T07:30:24;11.30;99.90
20670;DHT22;10494;50.868;4.180;2023-05-16T07:32:49;11.20;99.90
20670;DHT22;10494;50.868;4.180;2023-05-16T07:35:15;11.20;99.90
20670;DHT22;10494;50.868;4.180;2023-05-16T07:37:41;11.40;99.90
20670;DHT22;10494;50.868;4.180;2023-05-16T07:40:08;11.60;99.90
20670;DHT22;10494;50.868;4.180;2023-05-16T07:42:34;11.60;99.90
20670;DHT22;10494;50.868;4.180;2023-05-16T07:45:00;11.60;99.90
20670;DHT22;10494;50.868;4.180;2023-05-16T07:47:26;11.30;99.90
20670;DHT22;10494;50.868;4.180;2023-05-16T07:49:52;11.10;99.90
20670;DHT22;10494;50.868;4.180;2023-05-16T07:52:18;11.50;99.90
20670;DHT22;10494;50.868;4.180;2023-05-16T07:54:45;12.00;99.90
20670;DHT22;10494;50.868;4.180;2023-05-16T07:57:12;11.40;99.90
20670;DHT22;10494;50.868;4.180;2023-05-16T07:59:38;11.60;99.90
20670;DHT22;10494;50.868;4.180;2023-05-16T08:02:03;11.60;99.90
20670;DHT22;10494;50.868;4.180;2023-05-16T08:04:29;11.90;99.90
20670;DHT22;10494;50.868;4.180;2023-05-16T08:06:55;11.60;99.90
20670;DHT22;10494;50.868;4.180;2023-05-16T08:09:22;11.60;99.90
20670;DHT22;10494;50.868;4.180;2023-05-16T08:11:47;12.00;99.90
20670;DHT22;10494;50.868;4.180;2023-05-16T08:14:13;12.60;99.90
20670;DHT22;10494;50.868;4.180;2023-05-16T08:16:38;12.90;99.90
20670;DHT22;10494;50.868;4.180;2023-05-16T08:19:05;13.70;99.90
20670;DHT22;10494;50.868;4.180;2023-05-16T08:21:31;13.80;99.90
20670;DHT22;10494;50.868;4.180;2023-05-16T08:23:57;13.30;99.90
20670;DHT22;10494;50.868;4.180;2023-05-16T08:26:23;13.40;99.90
20670;DHT22;10494;50.868;4.180;2023-05-16T08:28:49;14.10;99.90
20670;DHT22;10494;50.868;4.180;2023-05-16T08:31:15;14.20;99.90
20670;DHT22;10494;50.868;4.180;2023-05-16T08:33:41;13.90;99.90
20670;DHT22;10494;50.868;4.180;2023-05-16T08:36:08;13.60;99.90
20670;DHT22;10494;50.868;4.180;2023-05-16T08:38:33;13.50;99.90
20670;DHT22;10494;50.868;4.180;2023-05-16T08:40:59;12.70;99.90
20670;DHT22;10494;50.868;4.180;2023-05-16T08:43:25;12.70;99.90
20670;DHT22;10494;50.868;4.180;2023-05-16T08:45:50;13.70;99.90
20670;DHT22;10494;50.868;4.180;2023-05-16T08:48:22;13.50;99.90
20670;DHT22;10494;50.868;4.180;2023-05-16T08:50:48;13.50;99.90
20670;DHT22;10494;50.868;4.180;2023-05-16T08:53:16;13.00;99.90
20670;DHT22;10494;50.868;4.180;2023-05-16T08:55:46;13.20;99.90
20670;DHT22;10494;50.868;4.180;2023-05-16T08:58:13;13.80;99.90
20670;DHT22;10494;50.868;4.180;2023-05-16T09:00:39;14.40;99.90
20670;DHT22;10494;50.868;4.180;2023-05-16T09:03:05;14.70;99.90
20670;DHT22;10494;50.868;4.180;2023-05-16T09:05:32;15.20;99.90
20670;DHT22;10494;50.868;4.180;2023-05-16T09:07:57;15.60;99.90
20670;DHT22;10494;50.868;4.180;2023-05-16T09:10:23;15.20;99.90
20670;DHT22;10494;50.868;4.180;2023-05-16T09:12:49;14.60;99.90
20670;DHT22;10494;50.868;4.180;2023-05-16T09:15:17;14.20;99.90
20670;DHT22;10494;50.868;4.180;2023-05-16T09:17:44;13.90;99.90
20670;DHT22;10494;50.868;4.180;2023-05-16T09:20:17;13.20;99.90
20670;DHT22;10494;50.868;4.180;2023-05-16T09:25:17;13.50;99.90
20670;DHT22;10494;50.868;4.180;2023-05-16T09:27:42;13.60;99.90
20670;DHT22;10494;50.868;4.180;2023-05-16T09:30:13;14.10;99.90
20670;DHT22;10494;50.868;4.180;2023-05-16T09:32:43;14.70;99.90
20670;DHT22;10494;50.868;4.180;2023-05-16T09:35:13;14.40;99.90
20670;DHT22;10494;50.868;4.180;2023-05-16T09:37:46;14.10;99.90
20670;DHT22;10494;50.868;4.180;2023-05-16T09:40:12;14.00;99.90
20670;DHT22;10494;50.868;4.180;2023-05-16T09:42:38;13.60;99.90
20670;DHT22;10494;50.868;4.180;2023-05-16T09:45:04;13.30;99.90
20670;DHT22;10494;50.868;4.180;2023-05-16T09:47:29;13.00;99.90
20670;DHT22;10494;50.868;4.180;2023-05-16T09:49:55;13.00;99.90
20670;DHT22;10494;50.868;4.180;2023-05-16T09:52:21;13.70;99.90
20670;DHT22;10494;50.868;4.180;2023-05-16T09:54:47;14.20;99.90
20670;DHT22;10494;50.868;4.180;2023-05-16T09:57:20;14.40;99.90
20670;DHT22;10494;50.868;4.180;2023-05-16T09:59:46;13.90;99.90
20670;DHT22;10494;50.868;4.180;2023-05-16T10:02:13;14.20;99.90
20670;DHT22;10494;50.868;4.180;2023-05-16T10:04:38;14.50;99.90
20670;DHT22;10494;50.868;4.180;2023-05-16T10:07:06;14.70;99.90
20670;DHT22;10494;50.868;4.180;2023-05-16T10:09:34;14.60;99.90
20670;DHT22;10494;50.868;4.180;2023-05-16T10:12:02;14.40;99.90
20670;DHT22;10494;50.868;4.180;2023-05-16T10:14:32;14.00;99.90
20670;DHT22;10494;50.868;4.180;2023-05-16T10:16:58;14.00;99.90
20670;DHT22;10494;50.868;4.180;2023-05-16T10:19:25;14.20;99.90
20670;DHT22;10494;50.868;4.180;2023-05-16T10:21:55;14.30;99.90
20670;DHT22;10494;50.868;4.180;2023-05-16T10:24:29;14.60;99.90
20670;DHT22;10494;50.868;4.180;2023-05-16T10:26:55;14.60;99.90
20670;DHT22;10494;50.868;4.180;2023-05-16T10:29:22;14.70;99.90
20670;DHT22;10494;50.868;4.180;2023-05-16T10:31:49;14.60;99.90
20670;DHT22;10494;50.868;4.180;2023-05-16T10:34:15;14.70;99.90
20670;DHT22;10494;50.868;4.180;2023-05-16T10:36:43;14.50;99.90
20670;DHT22;10494;50.868;4.180;2023-05-16T10:39:11;14.00;99.90
20670;DHT22;10494;50.868;4.180;2023-05-16T10:41:37;13.90;99.90
20670;DHT22;10494;50.868;4.180;2023-05-16T10:44:08;14.30;99.90
20670;DHT22;10494;50.868;4.180;2023-05-16T10:46:37;14.60;99.90
20670;DHT22;10494;50.868;4.180;2023-05-16T10:49:22;14.90;99.90
20670;DHT22;10494;50.868;4.180;2023-05-16T10:52:07;14.20;99.90
20670;DHT22;10494;50.868;4.180;2023-05-16T10:54:45;14.60;99.90
20670;DHT22;10494;50.868;4.180;2023-05-16T10:57:21;15.30;99.90
20670;DHT22;10494;50.868;4.180;2023-05-16T10:59:48;16.00;99.90
20670;DHT22;10494;50.868;4.180;2023-05-16T11:04:48;16.10;99.90
20670;DHT22;10494;50.868;4.180;2023-05-16T11:07:17;16.20;99.90
20670;DHT22;10494;50.868;4.180;2023-05-16T11:09:43;15.00;99.90
20670;DHT22;10494;50.868;4.180;2023-05-16T11:12:10;14.80;99.90
20670;DHT22;10494;50.868;4.180;2023-05-16T11:14:37;14.80;99.90
20670;DHT22;10494;50.868;4.180;2023-05-16T11:17:12;15.30;99.90
20670;DHT22;10494;50.868;4.180;2023-05-16T11:19:52;15.30;99.90
20670;DHT22;10494;50.868;4.180;2023-05-16T11:25:08;15.50;99.90
20670;DHT22;10494;50.868;4.180;2023-05-16T11:27:35;14.60;99.90
20670;DHT22;10494;50.868;4.180;2023-05-16T11:32:33;14.10;99.90
20670;DHT22;10494;50.868;4.180;2023-05-16T11:34:59;13.70;99.90
20670;DHT22;10494;50.868;4.180;2023-05-16T11:37:26;14.00;99.90
20670;DHT22;10494;50.868;4.180;2023-05-16T11:39:52;14.70;99.90
20670;DHT22;10494;50.868;4.180;2023-05-16T11:42:18;15.30;99.90
20670;DHT22;10494;50.868;4.180;2023-05-16T11:44:45;14.90;99.90
20670;DHT22;10494;50.868;4.180;2023-05-16T11:47:10;15.00;99.90
20670;DHT22;10494;50.868;4.180;2023-05-16T11:49:37;14.70;99.90
20670;DHT22;10494;50.868;4.180;2023-05-16T11:52:03;15.00;99.90
20670;DHT22;10494;50.868;4.180;2023-05-16T11:54:29;15.50;99.90
20670;DHT22;10494;50.868;4.180;2023-05-16T11:56:56;15.40;99.90
20670;DHT22;10494;50.868;4.180;2023-05-16T11:59:22;15.20;99.90
20670;DHT22;10494;50.868;4.180;2023-05-16T12:01:48;14.80;99.90
20670;DHT22;10494;50.868;4.180;2023-05-16T12:04:15;14.60;99.90
20670;DHT22;10494;50.868;4.180;2023-05-16T12:06:42;14.50;99.90
20670;DHT22;10494;50.868;4.180;2023-05-16T12:09:13;15.10;99.90
20670;DHT22;10494;50.868;4.180;2023-05-16T12:11:41;15.60;99.90
20670;DHT22;10494;50.868;4.180;2023-05-16T12:14:07;16.10;99.90
20670;DHT22;10494;50.868;4.180;2023-05-16T12:16:34;16.00;99.90
20670;DHT22;10494;50.868;4.180;2023-05-16T12:19:02;15.20;99.90
20670;DHT22;10494;50.868;4.180;2023-05-16T12:21:30;15.30;99.90
20670;DHT22;10494;50.868;4.180;2023-05-16T12:23:56;15.60;99.90
20670;DHT22;10494;50.868;4.180;2023-05-16T12:26:26;15.80;99.90
20670;DHT22;10494;50.868;4.180;2023-05-16T12:28:56;15.80;99.90
20670;DHT22;10494;50.868;4.180;2023-05-16T12:31:25;15.70;99.90
20670;DHT22;10494;50.868;4.180;2023-05-16T12:33:54;15.30;99.90
20670;DHT22;10494;50.868;4.180;2023-05-16T12:36:21;15.50;99.90
20670;DHT22;10494;50.868;4.180;2023-05-16T12:38:47;15.80;99.90
20670;DHT22;10494;50.868;4.180;2023-05-16T12:41:20;15.00;99.90
20670;DHT22;10494;50.868;4.180;2023-05-16T12:43:47;15.10;99.90
20670;DHT22;10494;50.868;4.180;2023-05-16T12:46:14;15.30;98.70
20670;DHT22;10494;50.868;4.180;2023-05-16T12:48:40;15.40;99.20
20670;DHT22;10494;50.868;4.180;2023-05-16T12:51:18;15.70;98.30
20670;DHT22;10494;50.868;4.180;2023-05-16T12:53:48;15.60;97.90
20670;DHT22;10494;50.868;4.180;2023-05-16T12:56:14;15.10;97.90
20670;DHT22;10494;50.868;4.180;2023-05-16T12:58:41;15.30;99.70
20670;DHT22;10494;50.868;4.180;2023-05-16T13:01:07;15.20;98.30
20670;DHT22;10494;50.868;4.180;2023-05-16T13:03:33;15.10;99.70
20670;DHT22;10494;50.868;4.180;2023-05-16T13:05:59;15.00;99.90
20670;DHT22;10494;50.868;4.180;2023-05-16T13:08:26;15.10;99.90
20670;DHT22;10494;50.868;4.180;2023-05-16T13:10:53;15.50;99.90
20670;DHT22;10494;50.868;4.180;2023-05-16T13:13:18;15.80;99.90
20670;DHT22;10494;50.868;4.180;2023-05-16T13:15:45;15.90;99.90
20670;DHT22;10494;50.868;4.180;2023-05-16T13:18:12;16.10;99.90
20670;DHT22;10494;50.868;4.180;2023-05-16T13:20:38;15.70;99.90
20670;DHT22;10494;50.868;4.180;2023-05-16T13:23:04;15.70;99.90
20670;DHT22;10494;50.868;4.180;2023-05-16T13:25:30;15.60;99.90
20670;DHT22;10494;50.868;4.180;2023-05-16T13:27:57;15.20;99.90
20670;DHT22;10494;50.868;4.180;2023-05-16T13:30:22;15.00;99.90
20670;DHT22;10494;50.868;4.180;2023-05-16T13:32:49;15.00;99.90
20670;DHT22;10494;50.868;4.180;2023-05-16T13:35:15;15.20;99.90
20670;DHT22;10494;50.868;4.180;2023-05-16T13:37:40;15.10;99.90
20670;DHT22;10494;50.868;4.180;2023-05-16T13:40:07;15.10;99.90
20670;DHT22;10494;50.868;4.180;2023-05-16T13:42:38;15.10;99.90
20670;DHT22;10494;50.868;4.180;2023-05-16T13:45:04;14.80;99.90
20670;DHT22;10494;50.868;4.180;2023-05-16T13:47:30;15.00;99.90
20670;DHT22;10494;50.868;4.180;2023-05-16T13:49:57;15.00;99.90
20670;DHT22;10494;50.868;4.180;2023-05-16T13:52:24;15.10;99.90
20670;DHT22;10494;50.868;4.180;2023-05-16T13:54:49;15.00;99.90
20670;DHT22;10494;50.868;4.180;2023-05-16T13:57:16;14.90;99.90
20670;DHT22;10494;50.868;4.180;2023-05-16T13:59:42;15.00;99.90
20670;DHT22;10494;50.868;4.180;2023-05-16T14:02:07;15.10;99.90
20670;DHT22;10494;50.868;4.180;2023-05-16T14:04:33;14.90;99.90
20670;DHT22;10494;50.868;4.180;2023-05-16T14:06:59;14.90;99.90
20670;DHT22;10494;50.868;4.180;2023-05-16T14:09:26;14.60;99.90
20670;DHT22;10494;50.868;4.180;2023-05-16T14:11:51;14.80;99.90
20670;DHT22;10494;50.868;4.180;2023-05-16T14:14:17;15.10;99.90
20670;DHT22;10494;50.868;4.180;2023-05-16T14:16:42;15.00;99.90
20670;DHT22;10494;50.868;4.180;2023-05-16T14:19:10;14.90;99.90
20670;DHT22;10494;50.868;4.180;2023-05-16T14:21:36;14.90;99.90
20670;DHT22;10494;50.868;4.180;2023-05-16T14:24:02;14.90;99.90
20670;DHT22;10494;50.868;4.180;2023-05-16T14:26:27;14.90;99.90
20670;DHT22;10494;50.868;4.180;2023-05-16T14:28:55;14.90;99.90
20670;DHT22;10494;50.868;4.180;2023-05-16T14:31:21;15.00;99.90
20670;DHT22;10494;50.868;4.180;2023-05-16T14:33:47;15.60;99.90
20670;DHT22;10494;50.868;4.180;2023-05-16T14:36:13;16.10;99.90
20670;DHT22;10494;50.868;4.180;2023-05-16T14:38:38;16.40;99.90
20670;DHT22;10494;50.868;4.180;2023-05-16T14:41:04;15.90;99.90
20670;DHT22;10494;50.868;4.180;2023-05-16T14:43:30;15.70;99.90
20670;DHT22;10494;50.868;4.180;2023-05-16T14:45:56;15.80;99.90
20670;DHT22;10494;50.868;4.180;2023-05-16T14:48:21;16.00;99.90
20670;DHT22;10494;50.868;4.180;2023-05-16T14:50:47;16.40;99.90
20670;DHT22;10494;50.868;4.180;2023-05-16T14:53:13;15.70;99.90
20670;DHT22;10494;50.868;4.180;2023-05-16T14:55:39;15.70;99.90
20670;DHT22;10494;50.868;4.180;2023-05-16T14:58:05;16.00;99.90
20670;DHT22;10494;50.868;4.180;2023-05-16T15:00:30;16.00;99.90
20670;DHT22;10494;50.868;4.180;2023-05-16T15:02:56;15.70;99.90
20670;DHT22;10494;50.868;4.180;2023-05-16T15:05:22;15.50;99.90
20670;DHT22;10494;50.868;4.180;2023-05-16T15:07:50;15.80;99.90
20670;DHT22;10494;50.868;4.180;2023-05-16T15:10:16;16.30;99.90
20670;DHT22;10494;50.868;4.180;2023-05-16T15:12:42;16.40;99.90
20670;DHT22;10494;50.868;4.180;2023-05-16T15:15:08;15.60;99.90
20670;DHT22;10494;50.868;4.180;2023-05-16T15:17:39;15.50;99.90
20670;DHT22;10494;50.868;4.180;2023-05-16T15:20:07;15.50;99.90
20670;DHT22;10494;50.868;4.180;2023-05-16T15:22:34;15.50;99.90
20670;DHT22;10494;50.868;4.180;2023-05-16T15:25:00;15.20;99.90
20670;DHT22;10494;50.868;4.180;2023-05-16T15:27:27;15.10;99.90
20670;DHT22;10494;50.868;4.180;2023-05-16T15:29:53;15.40;99.90
20670;DHT22;10494;50.868;4.180;2023-05-16T15:32:18;15.30;99.90
20670;DHT22;10494;50.868;4.180;2023-05-16T15:34:44;15.30;99.90
20670;DHT22;10494;50.868;4.180;2023-05-16T15:37:09;15.30;99.90
20670;DHT22;10494;50.868;4.180;2023-05-16T15:39:35;15.10;99.90
20670;DHT22;10494;50.868;4.180;2023-05-16T15:42:01;14.70;99.90
20670;DHT22;10494;50.868;4.180;2023-05-16T15:44:29;14.50;99.90
20670;DHT22;10494;50.868;4.180;2023-05-16T15:46:54;14.70;99.90
20670;DHT22;10494;50.868;4.180;2023-05-16T15:49:20;15.10;99.90